Time;durP1;ratioP1;P1;durP2;ratioP2;P2;SDS_P1;SDS_P2;PMS_P1;PMS_P2;Temp;Humidity;BMP_temperature;BMP_pressure;BME280_temperature;BME280_humidity;BME280_pressure;Samples;Min_cycle;Max_cycle;Signal;HPM_P1;HPM_P2
2023/03/08 00:00:04;;;;;;;;;;;;;;;11.85;67.65;99704.31;1266869;23;672;-70
2023/03/08 00:00:54;;;;;;;;;;;;;;;11.85;67.25;99709.66;1266048;23;708;-70
2023/03/08 00:01:44;;;;;;;;;;;;;;;11.85;67.40;99704.31;1265616;23;626;-70
2023/03/08 00:02:35;;;;;;;;;;;;;;;11.85;67.99;99714.13;1266043;23;602;-70
2023/03/08 00:03:25;;;;;;;;;;;;;;;11.86;67.14;99718.50;1265616;23;614;-70
2023/03/08 00:04:16;;;;;;;;;;;;;;;11.86;67.71;99711.34;1265921;23;626;-70
2023/03/08 00:05:06;;;;;;;;;;;;;;;11.84;67.65;99707.97;1265377;23;626;-70
2023/03/08 00:05:56;;;;;;;;;;;;;;;11.84;67.15;99707.97;1265666;23;645;-70
2023/03/08 00:06:47;;;;;;;;;;;;;;;11.84;67.00;99710.63;1265933;23;751;-70
2023/03/08 00:07:37;;;;;;;;;;;;;;;11.83;68.10;99701.78;1266682;23;688;-70
2023/03/08 00:08:28;;;;;;;;;;;;;;;11.83;67.66;99706.28;1266706;23;792;-70
2023/03/08 00:09:18;;;;;;;;;;;;;;;11.83;67.78;99706.28;1266151;23;637;-69
2023/03/08 00:10:09;;;;;;;;;;;;;;;11.82;68.04;99710.75;1266601;23;614;-69
2023/03/08 00:10:59;;;;;;;;;;;;;;;11.82;68.04;99713.44;1266027;23;654;-68
2023/03/08 00:11:49;;;;;;;;;;;;;;;11.82;67.98;99710.75;1265711;23;665;-69
2023/03/08 00:12:40;;;;;;;;;;;;;;;11.80;67.43;99702.06;1266775;23;637;-68
2023/03/08 00:13:30;;;;;;;;;;;;;;;11.79;67.17;99700.38;1266541;23;685;-69
2023/03/08 00:14:21;;;;;;;;;;;;;;;11.79;67.06;99705.72;1265833;23;662;-69
2023/03/08 00:15:11;;;;;;;;;;;;;;;11.79;67.60;99707.53;1266884;23;626;-68
2023/03/08 00:16:02;;;;;;;;;;;;;;;11.79;68.05;99711.06;1265831;23;634;-68
2023/03/08 00:16:53;;;;;;;;;;;;;;;11.81;67.86;99706.44;1266647;23;664;-68
2023/03/08 00:17:43;;;;;;;;;;;;;;;11.79;67.79;99702.19;1266012;23;665;-68
2023/03/08 00:18:33;;;;;;;;;;;;;;;11.78;67.85;99709.38;1265624;23;614;-68
2023/03/08 00:19:24;;;;;;;;;;;;;;;11.78;67.15;99709.38;1265882;23;654;-68
2023/03/08 00:20:14;;;;;;;;;;;;;;;11.78;67.94;99708.53;1266778;23;665;-68
2023/03/08 00:21:05;;;;;;;;;;;;;;;11.78;67.47;99705.84;1265763;23;678;-68
2023/03/08 00:21:55;;;;;;;;;;;;;;;11.79;67.99;99711.06;1265967;23;673;-69
2023/03/08 00:22:46;;;;;;;;;;;;;;;11.79;67.08;99711.06;1265614;23;665;-68
2023/03/08 00:23:36;;;;;;;;;;;;;;;11.78;67.92;99705.84;1266081;23;653;-68
2023/03/08 00:24:26;;;;;;;;;;;;;;;11.77;67.19;99709.50;1265609;23;635;-69
2023/03/08 00:25:17;;;;;;;;;;;;;;;11.76;67.42;99699.81;1265930;23;634;-68
2023/03/08 00:26:07;;;;;;;;;;;;;;;11.73;67.55;99713.38;1265492;23;826;-68
2023/03/08 00:26:58;;;;;;;;;;;;;;;11.73;67.39;99710.72;1265868;23;634;-68
2023/03/08 00:27:48;;;;;;;;;;;;;;;11.76;67.20;99707.81;1265966;23;609;-68
2023/03/08 00:28:39;;;;;;;;;;;;;;;11.75;67.27;99709.59;1261111;23;646;-68
2023/03/08 00:29:29;;;;;;;;;;;;;;;11.74;67.86;99707.91;1261035;23;665;-68
2023/03/08 00:30:19;;;;;;;;;;;;;;;11.76;67.03;99711.31;1265657;23;669;-69
2023/03/08 00:31:10;;;;;;;;;;;;;;;11.74;67.22;99705.22;1265879;23;653;-68
2023/03/08 00:32:00;;;;;;;;;;;;;;;11.74;67.30;99707.91;1266575;23;778;-68
2023/03/08 00:32:51;;;;;;;;;;;;;;;11.73;67.97;99713.38;1265719;23;662;-69
2023/03/08 00:33:41;;;;;;;;;;;;;;;11.73;67.66;99710.72;1265885;23;689;-68
2023/03/08 00:34:32;;;;;;;;;;;;;;;11.73;67.37;99705.38;1265100;23;606;-68
2023/03/08 00:35:22;;;;;;;;;;;;;;;11.72;67.23;99704.53;1265796;23;598;-69
2023/03/08 00:36:12;;;;;;;;;;;;;;;11.72;67.92;99703.69;1266593;23;657;-68
2023/03/08 00:37:03;;;;;;;;;;;;;;;11.73;67.88;99700.03;1265560;23;1085;-68
2023/03/08 00:37:53;;;;;;;;;;;;;;;11.72;67.91;99701.00;1265965;23;614;-69
2023/03/08 00:38:44;;;;;;;;;;;;;;;11.70;67.44;99703.81;1265718;23;617;-68
2023/03/08 00:39:34;;;;;;;;;;;;;;;11.69;67.53;99699.44;1266642;23;633;-68
2023/03/08 00:40:24;;;;;;;;;;;;;;;11.70;68.24;99701.13;1265510;23;610;-68
2023/03/08 00:41:15;;;;;;;;;;;;;;;11.69;68.07;99703.94;1265665;23;626;-68
2023/03/08 00:42:05;;;;;;;;;;;;;;;11.70;67.32;99695.81;1266004;23;622;-68
2023/03/08 00:42:56;;;;;;;;;;;;;;;11.70;67.83;99697.63;1265711;23;628;-68
2023/03/08 00:43:46;;;;;;;;;;;;;;;11.69;67.97;99699.44;1265894;23;618;-68
2023/03/08 00:44:36;;;;;;;;;;;;;;;11.68;67.79;99697.75;1266438;23;665;-69
2023/03/08 00:45:27;;;;;;;;;;;;;;;11.70;68.04;99701.13;1265761;23;811;-69
2023/03/08 00:46:17;;;;;;;;;;;;;;;11.71;68.02;99699.31;1265670;23;650;-68
2023/03/08 00:47:08;;;;;;;;;;;;;;;11.71;67.97;99697.50;1265717;23;626;-69
2023/03/08 00:47:58;;;;;;;;;;;;;;;11.70;68.01;99703.81;1265945;23;654;-69
2023/03/08 00:48:49;;;;;;;;;;;;;;;11.68;67.67;99703.09;1265955;23;617;-69
2023/03/08 00:49:39;;;;;;;;;;;;;;;11.70;67.54;99697.63;1265990;23;658;-69
2023/03/08 00:50:29;;;;;;;;;;;;;;;11.70;67.80;99705.63;1265596;23;649;-69
2023/03/08 00:51:20;;;;;;;;;;;;;;;11.69;67.82;99696.78;1265859;23;606;-68
2023/03/08 00:52:10;;;;;;;;;;;;;;;11.69;67.94;99698.59;1265788;23;618;-69
2023/03/08 00:53:01;;;;;;;;;;;;;;;11.68;67.50;99702.25;1265780;23;621;-68
2023/03/08 00:53:51;;;;;;;;;;;;;;;11.67;67.71;99696.06;1265882;23;1952;-68
2023/03/08 00:54:42;;;;;;;;;;;;;;;11.69;67.55;99687.94;1265681;23;614;-69
2023/03/08 00:55:32;;;;;;;;;;;;;;;11.69;67.49;99687.94;1266589;23;716;-66
2023/03/08 00:56:22;;;;;;;;;;;;;;;11.69;67.57;99690.59;1265511;23;642;-69
2023/03/08 00:57:15;;;;;;;;;;;;;;;11.67;67.95;99689.88;1265772;23;614;-69
2023/03/08 00:58:05;;;;;;;;;;;;;;;11.66;68.08;99683.69;1266531;23;657;-69
2023/03/08 00:58:56;;;;;;;;;;;;;;;11.65;68.19;99676.69;1265753;23;612;-69
2023/03/08 00:59:46;;;;;;;;;;;;;;;11.65;67.84;99681.16;1265738;23;693;-68
2023/03/08 01:00:36;;;;;;;;;;;;;;;11.66;68.11;99683.69;1266389;23;705;-69
2023/03/08 01:01:27;;;;;;;;;;;;;;;11.65;67.93;99679.34;1265663;23;630;-69
2023/03/08 01:02:17;;;;;;;;;;;;;;;11.67;67.98;99680.06;1265615;23;626;-69
2023/03/08 01:03:08;;;;;;;;;;;;;;;11.67;67.73;99684.53;1265022;23;591;-68
2023/03/08 01:03:58;;;;;;;;;;;;;;;11.66;67.74;99682.84;1265828;23;649;-69
2023/03/08 01:04:48;;;;;;;;;;;;;;;11.66;67.93;99677.53;1265602;23;635;-68
2023/03/08 01:05:39;;;;;;;;;;;;;;;11.67;68.19;99681.88;1266591;23;661;-69
2023/03/08 01:06:29;;;;;;;;;;;;;;;11.65;67.46;99687.34;1266415;23;626;-69
2023/03/08 01:07:22;;;;;;;;;;;;;;;11.64;67.23;99685.69;1265746;23;605;-68
2023/03/08 01:08:12;;;;;;;;;;;;;;;11.65;68.09;99689.16;1266647;23;625;-68
2023/03/08 01:09:03;;;;;;;;;;;;;;;11.66;67.95;99680.19;1266558;23;602;-68
2023/03/08 01:09:54;;;;;;;;;;;;;;;11.65;68.16;99683.84;1266689;23;691;-69
2023/03/08 01:10:44;;;;;;;;;;;;;;;11.63;68.37;99678.66;1265525;23;658;-69
2023/03/08 01:11:36;;;;;;;;;;;;;;;11.65;68.17;99686.50;1261047;23;634;-68
2023/03/08 01:12:26;;;;;;;;;;;;;;;11.63;68.05;99684.00;1260185;23;641;-68
2023/03/08 01:13:16;;;;;;;;;;;;;;;11.64;67.33;99676.84;1265491;23;649;-68
2023/03/08 01:14:07;;;;;;;;;;;;;;;11.65;68.21;99681.16;1260860;23;1928;-68
2023/03/08 01:14:58;;;;;;;;;;;;;;;11.65;68.34;99675.81;1260098;23;614;-69
2023/03/08 01:15:48;;;;;;;;;;;;;;;11.63;67.62;99672.47;1265735;23;587;-69
2023/03/08 01:16:39;;;;;;;;;;;;;;;11.62;68.02;99673.47;1266432;23;626;-68
2023/03/08 01:17:29;;;;;;;;;;;;;;;11.63;67.49;99675.16;1265735;23;634;-68
2023/03/08 01:18:19;;;;;;;;;;;;;;;11.62;68.18;99668.97;1266446;23;615;-69
2023/03/08 01:19:10;;;;;;;;;;;;;;;11.63;67.56;99669.81;1266595;23;607;-69
2023/03/08 01:20:01;;;;;;;;;;;;;;;11.63;68.17;99669.81;1265688;23;610;-69
2023/03/08 01:20:51;;;;;;;;;;;;;;;11.60;67.36;99667.41;1265731;23;669;-69
2023/03/08 01:21:41;;;;;;;;;;;;;;;11.60;68.21;99665.59;1265575;23;607;-68
2023/03/08 01:22:32;;;;;;;;;;;;;;;11.61;68.20;99663.75;1265779;23;598;-68
2023/03/08 01:23:22;;;;;;;;;;;;;;;11.61;67.55;99661.09;1260988;23;650;-69
2023/03/08 01:24:13;;;;;;;;;;;;;;;11.61;67.55;99658.44;1260941;23;642;-69
2023/03/08 01:25:03;;;;;;;;;;;;;;;11.60;68.43;99656.72;1265612;23;684;-68
2023/03/08 01:25:53;;;;;;;;;;;;;;;11.62;68.01;99657.44;1266361;23;684;-69
2023/03/08 01:26:44;;;;;;;;;;;;;;;11.63;68.05;99656.47;1265658;23;611;-69
2023/03/08 01:27:34;;;;;;;;;;;;;;;11.62;67.74;99654.78;1265860;23;674;-68
2023/03/08 01:28:25;;;;;;;;;;;;;;;11.61;68.19;99647.75;1266413;23;654;-69
2023/03/08 01:29:15;;;;;;;;;;;;;;;11.61;67.42;99647.75;1265798;23;681;-68
2023/03/08 01:30:05;;;;;;;;;;;;;;;11.62;67.69;99649.44;1265445;23;637;-68
2023/03/08 01:30:56;;;;;;;;;;;;;;;11.61;68.26;99655.75;1265714;23;606;-68
2023/03/08 01:31:46;;;;;;;;;;;;;;;11.61;68.41;99655.75;1265801;23;677;-66
2023/03/08 01:32:37;;;;;;;;;;;;;;;11.61;68.05;99653.09;1265706;23;614;-68
2023/03/08 01:33:27;;;;;;;;;;;;;;;11.60;68.10;99657.56;1265802;23;645;-68
2023/03/08 01:34:18;;;;;;;;;;;;;;;11.60;67.52;99652.25;1266303;23;1918;-69
2023/03/08 01:35:08;;;;;;;;;;;;;;;11.62;67.76;99660.13;1265732;23;685;-68
2023/03/08 01:35:58;;;;;;;;;;;;;;;11.59;67.89;99647.03;1265524;23;659;-68
2023/03/08 01:36:49;;;;;;;;;;;;;;;11.60;67.63;99656.72;1265700;23;720;-68
2023/03/08 01:37:39;;;;;;;;;;;;;;;11.60;67.77;99654.91;1265760;23;886;-69
2023/03/08 01:38:30;;;;;;;;;;;;;;;11.58;67.74;99648.00;1265554;23;613;-68
2023/03/08 01:39:20;;;;;;;;;;;;;;;11.55;67.93;99648.28;1265856;23;722;-69
2023/03/08 01:40:11;;;;;;;;;;;;;;;11.55;68.08;99648.28;1265686;23;598;-69
2023/03/08 01:41:01;;;;;;;;;;;;;;;11.57;67.51;99651.66;1260920;23;687;-69
2023/03/08 01:41:51;;;;;;;;;;;;;;;11.57;68.37;99644.50;1260212;23;665;-69
2023/03/08 01:42:42;;;;;;;;;;;;;;;11.57;68.07;99647.16;1265526;23;645;-69
2023/03/08 01:43:32;;;;;;;;;;;;;;;11.57;68.31;99641.00;1265826;23;610;-69
2023/03/08 01:44:23;;;;;;;;;;;;;;;11.56;68.18;99649.97;1266513;23;598;-69
2023/03/08 01:45:13;;;;;;;;;;;;;;;11.56;67.98;99649.97;1265857;23;668;-69
2023/03/08 01:46:04;;;;;;;;;;;;;;;11.57;67.74;99649.84;1266420;23;653;-69
2023/03/08 01:46:54;;;;;;;;;;;;;;;11.57;68.29;99649.84;1265135;23;625;-69
2023/03/08 01:47:44;;;;;;;;;;;;;;;11.56;68.32;99655.31;1266484;23;684;-69
2023/03/08 01:48:35;;;;;;;;;;;;;;;11.57;67.56;99646.31;1265628;23;685;-69
2023/03/08 01:49:25;;;;;;;;;;;;;;;11.57;68.31;99652.50;1265783;23;630;-69
2023/03/08 01:50:16;;;;;;;;;;;;;;;11.56;68.11;99655.31;1266332;23;640;-69
2023/03/08 01:51:06;;;;;;;;;;;;;;;11.57;67.41;99646.31;1265692;23;673;-69
2023/03/08 01:51:57;;;;;;;;;;;;;;;11.54;68.31;99643.94;1265503;23;683;-69
2023/03/08 01:52:47;;;;;;;;;;;;;;;11.55;67.55;99648.28;1265680;23;618;-69
2023/03/08 01:53:37;;;;;;;;;;;;;;;11.54;68.28;99649.25;1266366;23;649;-69
2023/03/08 01:54:28;;;;;;;;;;;;;;;11.54;68.32;99639.44;1265696;23;621;-69
2023/03/08 01:55:18;;;;;;;;;;;;;;;11.53;67.97;99632.41;1266568;23;742;-68
2023/03/08 01:56:09;;;;;;;;;;;;;;;11.54;68.09;99635.91;1265513;23;606;-69
2023/03/08 01:56:59;;;;;;;;;;;;;;;11.52;67.94;99635.22;1265790;23;673;-69
2023/03/08 01:57:50;;;;;;;;;;;;;;;11.51;68.33;99628.19;1265428;23;649;-69
2023/03/08 01:58:40;;;;;;;;;;;;;;;11.49;68.18;99626.50;1265652;23;654;-69
2023/03/08 01:59:30;;;;;;;;;;;;;;;11.49;68.22;99622.97;1265408;23;625;-69
2023/03/08 02:00:24;;;;;;;;;;;;;;;11.51;67.76;99620.19;1265666;23;666;-69
2023/03/08 02:01:14;;;;;;;;;;;;;;;11.53;67.79;99612.88;1265159;23;672;-69
2023/03/08 02:02:05;;;;;;;;;;;;;;;11.53;67.92;99612.88;1265585;23;657;-69
2023/03/08 02:02:55;;;;;;;;;;;;;;;11.51;68.44;99614.84;1266447;23;634;-69
2023/03/08 02:03:46;;;;;;;;;;;;;;;11.50;68.23;99608.66;1266560;23;664;-69
2023/03/08 02:04:36;;;;;;;;;;;;;;;11.51;67.98;99604.16;1266491;23;657;-69
2023/03/08 02:05:26;;;;;;;;;;;;;;;11.51;68.30;99610.34;1265855;23;658;-69
2023/03/08 02:06:17;;;;;;;;;;;;;;;11.51;68.23;99606.84;1265757;23;610;-69
2023/03/08 02:07:07;;;;;;;;;;;;;;;11.50;67.71;99603.31;1265904;23;621;-69
2023/03/08 02:07:58;;;;;;;;;;;;;;;11.48;67.88;99599.94;1265558;23;605;-69
2023/03/08 02:08:48;;;;;;;;;;;;;;;11.48;68.21;99603.47;1260888;23;633;-69
2023/03/08 02:09:39;;;;;;;;;;;;;;;11.44;67.76;99596.72;1259932;23;639;-68
2023/03/08 02:10:29;;;;;;;;;;;;;;;11.46;67.97;99596.59;1265686;23;614;-68
2023/03/08 02:11:19;;;;;;;;;;;;;;;11.48;67.64;99594.59;1265911;23;758;-68
2023/03/08 02:12:10;;;;;;;;;;;;;;;11.48;67.60;99592.78;1265668;23;602;-68
2023/03/08 02:13:00;;;;;;;;;;;;;;;11.49;67.90;99589.16;1265696;23;580;-69
2023/03/08 02:13:51;;;;;;;;;;;;;;;11.49;67.63;99599.81;1265579;23;618;-69
2023/03/08 02:14:41;;;;;;;;;;;;;;;11.49;68.39;99593.63;1266508;23;642;-70
2023/03/08 02:15:31;;;;;;;;;;;;;;;11.47;67.53;99590.25;1260900;23;661;-69
2023/03/08 02:16:22;;;;;;;;;;;;;;;11.44;68.58;99583.41;1260897;23;650;-69
2023/03/08 02:17:12;;;;;;;;;;;;;;;11.44;68.28;99590.56;1265710;23;670;-69
2023/03/08 02:18:03;;;;;;;;;;;;;;;11.44;68.65;99583.41;1265626;23;610;-69
2023/03/08 02:18:53;;;;;;;;;;;;;;;11.45;68.01;99582.41;1260810;23;653;-69
2023/03/08 02:19:44;;;;;;;;;;;;;;;11.45;68.45;99585.09;1260088;23;634;-69
2023/03/08 02:20:34;;;;;;;;;;;;;;;11.45;68.33;99585.09;1265853;23;614;-69
2023/03/08 02:21:25;;;;;;;;;;;;;;;11.45;68.03;99577.09;1265547;23;607;-69
2023/03/08 02:22:15;;;;;;;;;;;;;;;11.46;68.28;99580.59;1265770;23;617;-69
2023/03/08 02:23:06;;;;;;;;;;;;;;;11.46;68.46;99581.41;1265526;23;623;-69
2023/03/08 02:23:56;;;;;;;;;;;;;;;11.46;68.20;99573.41;1265717;23;681;-69
2023/03/08 02:24:47;;;;;;;;;;;;;;;11.47;67.65;99576.91;1265548;23;618;-69
2023/03/08 02:25:37;;;;;;;;;;;;;;;11.46;68.26;99576.06;1265598;23;614;-69
2023/03/08 02:26:27;;;;;;;;;;;;;;;11.45;67.77;99571.75;1265501;23;684;-69
2023/03/08 02:27:18;;;;;;;;;;;;;;;11.44;68.23;99577.22;1265604;23;665;-68
2023/03/08 02:28:08;;;;;;;;;;;;;;;11.44;68.46;99569.22;1265779;23;607;-69
2023/03/08 02:28:59;;;;;;;;;;;;;;;11.44;68.53;99567.38;1265473;23;661;-69
2023/03/08 02:29:49;;;;;;;;;;;;;;;11.45;68.27;99569.06;1265538;23;630;-69
2023/03/08 02:30:40;;;;;;;;;;;;;;;11.46;68.58;99576.06;1266252;23;851;-68
2023/03/08 02:31:30;;;;;;;;;;;;;;;11.46;68.39;99568.06;1265698;23;630;-69
2023/03/08 02:32:20;;;;;;;;;;;;;;;11.45;67.87;99569.06;1266577;23;669;-69
2023/03/08 02:33:11;;;;;;;;;;;;;;;11.45;68.01;99574.41;1265560;23;654;-69
2023/03/08 02:34:01;;;;;;;;;;;;;;;11.43;67.65;99568.38;1265655;23;1889;-69
2023/03/08 02:34:52;;;;;;;;;;;;;;;11.42;67.81;99572.00;1265564;23;627;-68
2023/03/08 02:35:43;;;;;;;;;;;;;;;11.42;68.48;99569.34;1265747;23;654;-69
2023/03/08 02:36:33;;;;;;;;;;;;;;;11.42;67.84;99571.16;1265730;23;623;-69
2023/03/08 02:37:23;;;;;;;;;;;;;;;11.41;68.29;99566.81;1266408;23;1099;-69
2023/03/08 02:38:14;;;;;;;;;;;;;;;11.42;67.69;99563.16;1266396;23;761;-69
2023/03/08 02:39:04;;;;;;;;;;;;;;;11.41;67.71;99567.66;1265703;23;558;-69
2023/03/08 02:39:55;;;;;;;;;;;;;;;11.39;68.53;99569.59;1265721;23;627;-69
2023/03/08 02:40:45;;;;;;;;;;;;;;;11.39;67.74;99568.78;1265583;23;700;-69
2023/03/08 02:41:36;;;;;;;;;;;;;;;11.38;68.38;99562.59;1266433;23;673;-69
2023/03/08 02:42:26;;;;;;;;;;;;;;;11.39;67.84;99564.28;1265591;23;618;-69
2023/03/08 02:43:17;;;;;;;;;;;;;;;11.39;67.85;99569.59;1265837;23;673;-69
2023/03/08 02:44:07;;;;;;;;;;;;;;;11.39;67.65;99566.94;1265671;23;649;-69
2023/03/08 02:44:58;;;;;;;;;;;;;;;11.39;68.48;99566.09;1260290;23;630;-69
2023/03/08 02:45:48;;;;;;;;;;;;;;;11.38;68.50;99565.25;1260785;23;540;-69
2023/03/08 02:46:38;;;;;;;;;;;;;;;11.36;68.03;99567.22;1265368;23;591;-69
2023/03/08 02:47:29;;;;;;;;;;;;;;;11.37;67.61;99555.56;1265496;23;666;-69
2023/03/08 02:48:19;;;;;;;;;;;;;;;11.38;67.92;99567.91;1265763;23;922;-69
2023/03/08 02:49:10;;;;;;;;;;;;;;;11.39;68.41;99564.28;1265433;23;634;-69
2023/03/08 02:50:00;;;;;;;;;;;;;;;11.39;68.03;99560.75;1266449;23;649;-69
2023/03/08 02:50:51;;;;;;;;;;;;;;;11.37;68.42;99566.22;1266292;23;634;-69
2023/03/08 02:51:41;;;;;;;;;;;;;;;11.37;68.21;99560.91;1265620;23;626;-69
2023/03/08 02:52:31;;;;;;;;;;;;;;;11.37;68.33;99568.91;1265737;23;633;-69
2023/03/08 02:53:22;;;;;;;;;;;;;;;11.36;67.85;99561.03;1265529;23;658;-69
2023/03/08 02:54:12;;;;;;;;;;;;;;;11.36;67.69;99559.22;1266263;23;1901;-69
2023/03/08 02:55:03;;;;;;;;;;;;;;;11.36;67.67;99553.88;1265351;23;575;-69
2023/03/08 02:55:53;;;;;;;;;;;;;;;11.36;68.37;99564.53;1265422;23;748;-69
2023/03/08 02:56:44;;;;;;;;;;;;;;;11.37;68.72;99560.91;1260659;23;614;-69
2023/03/08 02:57:34;;;;;;;;;;;;;;;11.37;68.27;99563.56;1259930;23;754;-69
2023/03/08 02:58:24;;;;;;;;;;;;;;;11.34;68.44;99563.84;1265769;23;602;-69
2023/03/08 02:59:15;;;;;;;;;;;;;;;11.34;68.22;99566.50;1264898;23;634;-68
2023/03/08 03:00:05;;;;;;;;;;;;;;;11.33;68.48;99564.81;1265698;23;702;-69
2023/03/08 03:00:56;;;;;;;;;;;;;;;11.35;68.40;99570.00;1265313;23;607;-69
2023/03/08 03:01:46;;;;;;;;;;;;;;;11.34;68.42;99565.66;1265623;23;618;-69
2023/03/08 03:02:36;;;;;;;;;;;;;;;11.33;68.62;99571.97;1265774;23;658;-68
2023/03/08 03:03:27;;;;;;;;;;;;;;;11.33;68.41;99567.47;1265509;23;670;-68
2023/03/08 03:04:17;;;;;;;;;;;;;;;11.31;68.26;99556.09;1265920;23;618;-68
2023/03/08 03:05:09;;;;;;;;;;;;;;;11.32;68.47;99560.44;1265471;23;630;-68
2023/03/08 03:06:00;;;;;;;;;;;;;;;11.34;67.87;99560.31;1266429;23;614;-68
2023/03/08 03:06:50;;;;;;;;;;;;;;;11.33;67.83;99559.47;1266585;23;705;-69
2023/03/08 03:07:41;;;;;;;;;;;;;;;11.34;68.39;99565.66;1265441;23;622;-69
2023/03/08 03:08:31;;;;;;;;;;;;;;;11.35;67.97;99562.84;1260840;23;637;-68
2023/03/08 03:09:22;;;;;;;;;;;;;;;11.36;67.81;99563.69;1259850;23;626;-69
2023/03/08 03:10:12;;;;;;;;;;;;;;;11.37;67.79;99571.56;1265509;23;591;-69
2023/03/08 03:11:02;;;;;;;;;;;;;;;11.36;68.04;99572.53;1266539;23;598;-68
2023/03/08 03:11:53;;;;;;;;;;;;;;;11.37;68.65;99574.22;1265562;23;613;-69
2023/03/08 03:12:43;;;;;;;;;;;;;;;11.36;68.27;99575.22;1265693;23;650;-69
2023/03/08 03:13:34;;;;;;;;;;;;;;;11.35;68.71;99576.19;1265482;23;800;-69
2023/03/08 03:14:24;;;;;;;;;;;;;;;11.35;68.12;99575.34;1266374;23;1932;-69
2023/03/08 03:15:15;;;;;;;;;;;;;;;11.35;68.48;99576.19;1266284;23;677;-68
2023/03/08 03:16:05;;;;;;;;;;;;;;;11.36;67.76;99574.38;1265845;23;638;-69
2023/03/08 03:16:55;;;;;;;;;;;;;;;11.36;68.52;99580.53;1265158;23;619;-68
2023/03/08 03:17:46;;;;;;;;;;;;;;;11.36;67.95;99579.69;1265338;23;669;-69
2023/03/08 03:18:36;;;;;;;;;;;;;;;11.32;68.02;99573.78;1260615;23;614;-69
2023/03/08 03:19:27;;;;;;;;;;;;;;;11.34;68.17;99576.31;1260122;23;611;-69
2023/03/08 03:20:17;;;;;;;;;;;;;;;11.34;68.58;99584.31;1265945;23;646;-69
2023/03/08 03:21:08;;;;;;;;;;;;;;;11.32;68.10;99576.47;1266073;23;626;-69
2023/03/08 03:21:58;;;;;;;;;;;;;;;11.33;68.32;99580.81;1265984;23;598;-69
2023/03/08 03:22:48;;;;;;;;;;;;;;;11.33;68.49;99580.81;1266838;23;645;-69
2023/03/08 03:23:39;;;;;;;;;;;;;;;11.33;68.58;99591.47;1266720;23;622;-69
2023/03/08 03:24:29;;;;;;;;;;;;;;;11.33;68.16;99583.47;1265995;23;658;-69
2023/03/08 03:25:20;;;;;;;;;;;;;;;11.33;67.82;99583.47;1266620;23;646;-69
2023/03/08 03:26:10;;;;;;;;;;;;;;;11.32;68.03;99579.13;1265889;23;622;-68
2023/03/08 03:27:00;;;;;;;;;;;;;;;11.32;68.27;99575.59;1266165;23;658;-69
2023/03/08 03:27:52;;;;;;;;;;;;;;;11.32;68.34;99573.78;1265921;23;625;-68
2023/03/08 03:28:43;;;;;;;;;;;;;;;11.31;67.82;99572.09;1265729;23;635;-69
2023/03/08 03:29:33;;;;;;;;;;;;;;;11.31;68.00;99574.75;1261242;23;657;-68
2023/03/08 03:30:23;;;;;;;;;;;;;;;11.32;67.64;99573.78;1260353;23;665;-68
2023/03/08 03:31:14;;;;;;;;;;;;;;;11.30;67.72;99570.41;1265875;23;645;-68
2023/03/08 03:32:04;;;;;;;;;;;;;;;11.29;68.24;99568.72;1265821;23;606;-68
2023/03/08 03:32:55;;;;;;;;;;;;;;;11.28;68.15;99561.72;1265732;23;659;-68
2023/03/08 03:33:45;;;;;;;;;;;;;;;11.30;68.80;99561.56;1265939;23;629;-68
2023/03/08 03:34:36;;;;;;;;;;;;;;;11.31;68.52;99556.09;1266052;23;614;-68
2023/03/08 03:35:26;;;;;;;;;;;;;;;11.31;68.45;99553.44;1266001;23;641;-68
2023/03/08 03:36:16;;;;;;;;;;;;;;;11.30;68.31;99549.06;1265950;23;618;-68
2023/03/08 03:37:07;;;;;;;;;;;;;;;11.30;68.38;99548.22;1265627;23;1126;-68
2023/03/08 03:37:57;;;;;;;;;;;;;;;11.31;68.02;99545.44;1266702;23;630;-68
2023/03/08 03:38:48;;;;;;;;;;;;;;;11.32;68.04;99540.94;1265773;23;618;-68
2023/03/08 03:39:38;;;;;;;;;;;;;;;11.31;68.66;99540.09;1265838;23;626;-68
2023/03/08 03:40:28;;;;;;;;;;;;;;;11.30;68.53;99541.06;1266876;23;638;-68
2023/03/08 03:41:19;;;;;;;;;;;;;;;11.30;68.42;99533.06;1266655;23;669;-68
2023/03/08 03:42:10;;;;;;;;;;;;;;;11.28;68.02;99539.56;1265910;23;981;-68
2023/03/08 03:43:00;;;;;;;;;;;;;;;11.28;68.37;99535.06;1265271;23;681;-69
2023/03/08 03:43:50;;;;;;;;;;;;;;;11.27;68.43;99532.53;1266024;23;646;-68
2023/03/08 03:44:41;;;;;;;;;;;;;;;11.25;68.38;99531.81;1266683;23;610;-68
2023/03/08 03:45:31;;;;;;;;;;;;;;;11.27;67.97;99532.53;1265990;23;693;-68
2023/03/08 03:46:22;;;;;;;;;;;;;;;11.25;68.33;99529.16;1265689;23;704;-68
2023/03/08 03:47:12;;;;;;;;;;;;;;;11.26;67.99;99522.84;1265999;23;661;-68
2023/03/08 03:48:03;;;;;;;;;;;;;;;11.24;67.90;99527.47;1266162;23;634;-68
2023/03/08 03:48:53;;;;;;;;;;;;;;;11.25;68.63;99530.00;1266732;23;605;-68
2023/03/08 03:49:43;;;;;;;;;;;;;;;11.23;68.51;99529.28;1266015;23;673;-68
2023/03/08 03:50:34;;;;;;;;;;;;;;;11.26;68.66;99528.16;1265802;23;634;-68
2023/03/08 03:51:24;;;;;;;;;;;;;;;11.27;68.85;99524.53;1265971;23;625;-68
2023/03/08 03:52:15;;;;;;;;;;;;;;;11.25;67.96;99526.47;1265726;23;618;-68
2023/03/08 03:53:05;;;;;;;;;;;;;;;11.25;68.47;99526.47;1265823;23;641;-68
2023/03/08 03:53:57;;;;;;;;;;;;;;;11.24;68.48;99527.47;1266109;23;637;-68
2023/03/08 03:54:47;;;;;;;;;;;;;;;11.24;67.87;99516.78;1266009;23;625;-68
2023/03/08 03:55:38;;;;;;;;;;;;;;;11.24;68.13;99522.13;1265858;23;594;-68
2023/03/08 03:56:28;;;;;;;;;;;;;;;11.23;68.56;99515.94;1265955;23;622;-68
2023/03/08 03:57:19;;;;;;;;;;;;;;;11.22;68.78;99524.94;1265485;23;658;-68
2023/03/08 03:58:09;;;;;;;;;;;;;;;11.21;68.74;99519.72;1266604;23;602;-68
2023/03/08 03:58:59;;;;;;;;;;;;;;;11.21;68.80;99519.72;1266141;23;681;-68
2023/03/08 03:59:50;;;;;;;;;;;;;;;11.20;68.09;99523.38;1265720;23;646;-68
2023/03/08 04:00:40;;;;;;;;;;;;;;;11.21;68.24;99515.25;1265846;23;676;-69
2023/03/08 04:01:31;;;;;;;;;;;;;;;11.22;68.14;99518.75;1265948;23;622;-68
2023/03/08 04:02:21;;;;;;;;;;;;;;;11.21;68.08;99511.72;1265780;23;586;-68
2023/03/08 04:03:11;;;;;;;;;;;;;;;11.21;68.54;99509.91;1266066;23;614;-68
2023/03/08 04:04:02;;;;;;;;;;;;;;;11.21;67.70;99507.25;1261096;23;649;-68
2023/03/08 04:04:52;;;;;;;;;;;;;;;11.20;68.44;99516.22;1260387;23;626;-68
2023/03/08 04:05:43;;;;;;;;;;;;;;;11.21;68.28;99515.25;1265665;23;614;-68
2023/03/08 04:06:33;;;;;;;;;;;;;;;11.19;68.01;99519.84;1265928;23;657;-68
2023/03/08 04:07:24;;;;;;;;;;;;;;;11.19;67.99;99505.69;1265745;23;603;-68
2023/03/08 04:08:14;;;;;;;;;;;;;;;11.18;68.13;99517.31;1265835;23;606;-69
2023/03/08 04:09:05;;;;;;;;;;;;;;;11.16;67.98;99509.47;1265995;23;642;-68
2023/03/08 04:09:55;;;;;;;;;;;;;;;11.17;68.00;99516.47;1266634;23;653;-69
2023/03/08 04:10:45;;;;;;;;;;;;;;;11.16;68.83;99509.47;1266019;23;665;-69
2023/03/08 04:11:36;;;;;;;;;;;;;;;11.16;68.60;99509.47;1265575;23;618;-68
2023/03/08 04:12:26;;;;;;;;;;;;;;;11.17;67.97;99510.31;1266753;23;676;-69
2023/03/08 04:13:17;;;;;;;;;;;;;;;11.14;68.62;99517.59;1265686;23;658;-69
2023/03/08 04:14:07;;;;;;;;;;;;;;;11.17;67.93;99516.47;1265696;23;1930;-69
2023/03/08 04:14:58;;;;;;;;;;;;;;;11.16;68.24;99516.63;1265644;23;630;-69
2023/03/08 04:15:48;;;;;;;;;;;;;;;11.17;68.06;99513.81;1265881;23;584;-69
2023/03/08 04:16:39;;;;;;;;;;;;;;;11.16;68.80;99512.13;1266565;23;700;-68
2023/03/08 04:17:29;;;;;;;;;;;;;;;11.14;67.98;99506.94;1261068;23;953;-68
2023/03/08 04:18:20;;;;;;;;;;;;;;;11.11;68.67;99507.19;1260897;23;595;-68
2023/03/08 04:19:10;;;;;;;;;;;;;;;11.13;68.22;99509.72;1265711;23;639;-68
2023/03/08 04:20:01;;;;;;;;;;;;;;;11.13;68.20;99502.56;1261071;23;673;-68
2023/03/08 04:20:51;;;;;;;;;;;;;;;11.15;68.67;99507.78;1261058;23;634;-68
2023/03/08 04:21:41;;;;;;;;;;;;;;;11.16;68.57;99501.47;1267326;23;614;-68
2023/03/08 04:22:32;;;;;;;;;;;;;;;11.17;68.40;99503.16;1265662;23;629;-68
2023/03/08 04:23:22;;;;;;;;;;;;;;;11.19;68.03;99495.03;1266662;23;612;-68
2023/03/08 04:24:13;;;;;;;;;;;;;;;11.17;67.69;99495.16;1265519;23;622;-68
2023/03/08 04:25:03;;;;;;;;;;;;;;;11.19;67.80;99497.69;1265556;23;610;-68
2023/03/08 04:25:53;;;;;;;;;;;;;;;11.18;68.50;99498.66;1266036;23;662;-68
2023/03/08 04:26:44;;;;;;;;;;;;;;;11.17;68.56;99495.16;1265646;23;617;-68
2023/03/08 04:27:34;;;;;;;;;;;;;;;11.16;68.04;99496.13;1260892;23;645;-68
2023/03/08 04:28:25;;;;;;;;;;;;;;;11.16;67.96;99493.47;1255077;23;645;-68
2023/03/08 04:29:15;;;;;;;;;;;;;;;11.16;68.06;99493.47;1259892;23;618;-68